createdAt,value
2022-12-03T00:00:53.605Z,102572.66
2022-12-03T00:03:20.644Z,102559.59
2022-12-03T00:05:49.135Z,102555.25
2022-12-03T00:08:16.896Z,102550.28
2022-12-03T00:10:43.817Z,102569.50
2022-12-03T00:13:10.704Z,102569.25
2022-12-03T00:15:37.690Z,102570.06
2022-12-03T00:18:04.738Z,102563.03
2022-12-03T00:20:31.593Z,102571.56
2022-12-03T00:22:58.470Z,102572.25
2022-12-03T00:25:25.326Z,102574.59
2022-12-03T00:27:52.212Z,102579.53
2022-12-03T00:30:19.150Z,102584.56
2022-12-03T00:32:46.028Z,102581.03
2022-12-03T00:35:12.979Z,102573.31
2022-12-03T00:37:39.870Z,102569.81
2022-12-03T00:40:07.984Z,102568.53
2022-12-03T00:42:34.862Z,102575.56
2022-12-03T00:45:01.771Z,102578.91
2022-12-03T00:47:28.660Z,102577.81
2022-12-03T00:49:55.530Z,102580.59
2022-12-03T00:52:22.437Z,102591.56
2022-12-03T00:54:49.443Z,102595.50
2022-12-03T00:57:16.324Z,102602.13
2022-12-03T00:59:43.198Z,102596.56
2022-12-03T01:02:11.008Z,102601.50
2022-12-03T01:04:37.970Z,102600.16
2022-12-03T01:07:05.009Z,102602.53
2022-12-03T01:09:32.047Z,102594.50
2022-12-03T01:11:59.220Z,102611.72
2022-12-03T01:14:26.216Z,102595.63
2022-12-03T01:16:53.099Z,102608.41
2022-12-03T01:19:19.997Z,102604.50
2022-12-03T01:21:50.331Z,102610.63
2022-12-03T01:24:18.266Z,102601.28
2022-12-03T01:26:45.200Z,102603.66
2022-12-03T01:29:12.168Z,102601.84
2022-12-03T01:31:57.569Z,102603.41
2022-12-03T01:34:24.469Z,102598.75
2022-12-03T01:36:52.475Z,102601.13
2022-12-03T01:39:19.783Z,102597.75
2022-12-03T01:41:48.442Z,102602.34
2022-12-03T01:44:28.375Z,102596.09
2022-12-03T01:46:57.803Z,102592.47
2022-12-03T01:49:38.003Z,102604.22
2022-12-03T01:52:05.002Z,102600.66
2022-12-03T01:54:41.550Z,102589.97
2022-12-03T01:57:25.432Z,102594.41
2022-12-03T01:59:54.520Z,102572.97
2022-12-03T02:02:30.951Z,102574.25
2022-12-03T02:04:58.203Z,102581.72
2022-12-03T02:07:32.665Z,102583.81
2022-12-03T02:10:02.661Z,102574.63
2022-12-03T02:12:38.645Z,102574.63
2022-12-03T02:15:07.569Z,102573.84
2022-12-03T02:17:34.817Z,102573.84
2022-12-03T02:20:04.780Z,102573.25
2022-12-03T02:22:55.076Z,102571.78
2022-12-03T02:25:24.993Z,102580.78
2022-12-03T02:27:55.026Z,102575.28
2022-12-03T02:30:25.339Z,102581.53
2022-12-03T02:32:53.488Z,102565.00
2022-12-03T02:35:27.096Z,102566.16
2022-12-03T02:38:16.107Z,102569.91
2022-12-03T02:40:46.242Z,102559.72
2022-12-03T02:43:16.502Z,102570.41
2022-12-03T02:45:46.785Z,102561.84
2022-12-03T02:48:31.566Z,102562.78
2022-12-03T02:51:03.128Z,102551.44
2022-12-03T02:53:44.563Z,102558.84
2022-12-03T02:56:16.789Z,102556.53
2022-12-03T02:58:47.308Z,102556.88
2022-12-03T03:01:15.544Z,102550.63
2022-12-03T03:03:43.508Z,102553.88
2022-12-03T03:06:10.564Z,102551.69
2022-12-03T03:08:38.900Z,102548.78
2022-12-03T03:11:05.935Z,102551.13
2022-12-03T03:13:33.939Z,102549.91
2022-12-03T03:16:06.531Z,102545.69
2022-12-03T03:18:34.458Z,102543.00
2022-12-03T03:21:01.691Z,102541.22
2022-12-03T03:23:28.645Z,102528.06
2022-12-03T03:26:07.047Z,102536.97
2022-12-03T03:28:38.579Z,102534.75
2022-12-03T03:31:08.330Z,102532.50
2022-12-03T03:33:36.879Z,102534.69
2022-12-03T03:36:03.990Z,102538.59
2022-12-03T03:38:31.405Z,102525.19
2022-12-03T03:41:00.454Z,102528.03
2022-12-03T03:43:29.946Z,102534.31
2022-12-03T03:45:57.130Z,102527.41
2022-12-03T03:48:24.218Z,102528.03
2022-12-03T03:50:52.011Z,102525.47
2022-12-03T03:53:20.202Z,102506.94
2022-12-03T03:55:47.568Z,102506.25
2022-12-03T03:58:15.286Z,102511.22
2022-12-03T04:00:46.249Z,102506.28
2022-12-03T04:03:13.766Z,102510.75
2022-12-03T04:05:40.906Z,102505.72
2022-12-03T04:08:07.856Z,102509.97
2022-12-03T04:10:53.550Z,102510.47
2022-12-03T04:13:20.481Z,102507.25
2022-12-03T04:15:47.978Z,102502.84
2022-12-03T04:18:34.023Z,102470.44
2022-12-03T04:21:19.414Z,102504.31
2022-12-03T04:23:46.306Z,102503.84
2022-12-03T04:26:51.601Z,102490.50
2022-12-03T04:29:19.761Z,102499.91
2022-12-03T04:32:05.799Z,102499.22
2022-12-03T04:34:52.081Z,102500.22
2022-12-03T04:37:19.404Z,102498.75
2022-12-03T04:39:46.277Z,102496.69
2022-12-03T04:42:13.142Z,102485.53
2022-12-03T04:44:40.016Z,102489.31
2022-12-03T04:47:13.525Z,102486.84
2022-12-03T04:49:46.589Z,102487.75
2022-12-03T04:52:15.676Z,102480.81
2022-12-03T04:54:43.175Z,102491.00
2022-12-03T04:57:11.232Z,102485.97
2022-12-03T04:59:38.742Z,102486.94
2022-12-03T05:02:07.122Z,102487.84
2022-12-03T05:04:34.313Z,102491.88
2022-12-03T05:07:01.877Z,102491.78
2022-12-03T05:09:28.725Z,102489.91
2022-12-03T05:11:55.598Z,102489.22
2022-12-03T05:14:22.462Z,102479.13
2022-12-03T05:16:49.416Z,102477.66
2022-12-03T05:19:16.334Z,102465.03
2022-12-03T05:21:43.228Z,102476.88
2022-12-03T05:24:10.276Z,102476.00
2022-12-03T05:26:37.195Z,102464.03
2022-12-03T05:29:04.071Z,102464.13
2022-12-03T05:31:31.018Z,102463.34
2022-12-03T05:33:57.952Z,102469.09
2022-12-03T05:36:25.553Z,102467.50
2022-12-03T05:38:52.467Z,102472.66
2022-12-03T05:41:37.639Z,102470.97
2022-12-03T05:44:04.511Z,102471.88
2022-12-03T05:46:32.645Z,102462.28
2022-12-03T05:48:59.608Z,102469.31
2022-12-03T05:51:26.499Z,102467.50
2022-12-03T05:53:53.361Z,102465.81
2022-12-03T05:56:20.225Z,102463.25
2022-12-03T05:58:47.105Z,102463.50
2022-12-03T06:01:13.979Z,102454.97
2022-12-03T06:03:40.995Z,102469.03
2022-12-03T06:06:07.972Z,102459.63
2022-12-03T06:08:34.877Z,102459.53
2022-12-03T06:11:01.750Z,102459.13
2022-12-03T06:13:28.644Z,102456.66
2022-12-03T06:15:55.621Z,102451.41
2022-12-03T06:18:22.578Z,102429.25
2022-12-03T06:20:49.442Z,102432.41
2022-12-03T06:23:16.321Z,102449.31
2022-12-03T06:25:43.191Z,102452.22
2022-12-03T06:28:10.074Z,102450.72
2022-12-03T06:30:36.992Z,102458.72
2022-12-03T06:33:03.936Z,102455.59
2022-12-03T06:35:31.939Z,102447.88
2022-12-03T06:37:58.932Z,102451.72
2022-12-03T06:40:25.869Z,102443.81
2022-12-03T06:42:53.045Z,102455.22
2022-12-03T06:45:19.925Z,102449.16
2022-12-03T06:47:46.837Z,102441.66
2022-12-03T06:50:13.967Z,102451.94
2022-12-03T06:52:40.892Z,102451.25
2022-12-03T06:55:08.707Z,102446.13
2022-12-03T06:57:35.581Z,102451.25
2022-12-03T07:00:03.851Z,102453.91
2022-12-03T07:02:30.834Z,102453.81
2022-12-03T07:04:58.109Z,102456.09
2022-12-03T07:07:25.271Z,102449.06
2022-12-03T07:09:52.174Z,102441.06
2022-12-03T07:12:19.294Z,102448.94
2022-12-03T07:14:46.183Z,102442.53
2022-12-03T07:17:13.091Z,102437.28
2022-12-03T07:19:39.987Z,102429.47
2022-12-03T07:22:06.985Z,102426.81
2022-12-03T07:24:33.889Z,102423.31
2022-12-03T07:27:00.766Z,102440.25
2022-12-03T07:29:27.626Z,102429.06
2022-12-03T07:31:54.604Z,102438.59
2022-12-03T07:34:21.644Z,102430.56
2022-12-03T07:36:48.556Z,102442.13
2022-12-03T07:39:15.506Z,102444.69
2022-12-03T07:41:42.452Z,102438.78
2022-12-03T07:44:14.024Z,102444.22
2022-12-03T07:46:42.198Z,102443.31
2022-12-03T07:49:09.152Z,102444.63
2022-12-03T07:51:36.040Z,102441.94
2022-12-03T07:54:02.898Z,102425.19
2022-12-03T07:56:30.082Z,102439.97
2022-12-03T07:58:56.978Z,102442.53
2022-12-03T08:01:23.939Z,102444.31
2022-12-03T08:03:50.890Z,102438.16
2022-12-03T08:06:17.752Z,102439.56
2022-12-03T08:08:44.639Z,102447.63
2022-12-03T08:11:16.678Z,102448.75
2022-12-03T08:13:43.850Z,102446.56
2022-12-03T08:16:22.332Z,102436.59
2022-12-03T08:18:50.858Z,102444.56
2022-12-03T08:21:20.752Z,102437.88
2022-12-03T08:23:48.012Z,102435.41
2022-12-03T08:26:25.142Z,102438.97
2022-12-03T08:28:53.315Z,102431.34
2022-12-03T08:31:32.481Z,102434.72
2022-12-03T08:34:17.898Z,102436.78
2022-12-03T08:36:45.578Z,102443.03
2022-12-03T08:39:44.499Z,102429.56
2022-12-03T08:42:41.751Z,102421.78
2022-12-03T08:45:32.109Z,102432.63
2022-12-03T08:48:42.747Z,102429.38
2022-12-03T08:51:27.173Z,102438.88
2022-12-03T08:54:02.189Z,102428.00
2022-12-03T08:56:30.967Z,102416.63
2022-12-03T08:59:21.917Z,102437.00
2022-12-03T09:01:50.198Z,102433.94
2022-12-03T09:04:30.378Z,102433.22
2022-12-03T09:06:58.675Z,102438.56
2022-12-03T09:09:25.973Z,102417.78
2022-12-03T09:11:53.930Z,102429.56
2022-12-03T09:14:23.499Z,102440.03
2022-12-03T09:16:55.506Z,102430.75
2022-12-03T09:19:27.884Z,102427.41
2022-12-03T09:21:55.110Z,102422.25
2022-12-03T09:24:22.463Z,102425.59
2022-12-03T09:26:49.633Z,102422.13
2022-12-03T09:29:16.575Z,102418.75
2022-12-03T09:31:43.564Z,102416.09
2022-12-03T09:34:11.021Z,102417.00
2022-12-03T09:36:37.973Z,102422.94
2022-12-03T09:39:05.173Z,102423.84
2022-12-03T09:41:32.054Z,102421.25
2022-12-03T09:44:08.631Z,102421.97
2022-12-03T09:46:38.483Z,102411.25
2022-12-03T09:49:13.997Z,102415.41
2022-12-03T09:51:43.434Z,102415.53
2022-12-03T09:54:26.155Z,102417.09
2022-12-03T09:57:00.304Z,102420.38
2022-12-03T09:59:32.061Z,102411.66
2022-12-03T10:02:00.185Z,102417.91
2022-12-03T10:04:28.697Z,102390.69
2022-12-03T10:06:57.902Z,102406.13
2022-12-03T10:09:27.929Z,102400.19
2022-12-03T10:11:57.620Z,102405.41
2022-12-03T10:14:25.004Z,102392.47
2022-12-03T10:16:52.233Z,102401.25
2022-12-03T10:19:24.708Z,102396.22
2022-12-03T10:21:51.731Z,102392.94
2022-12-03T10:24:31.570Z,102391.25
2022-12-03T10:27:24.314Z,102388.50
2022-12-03T10:29:59.893Z,102385.13
2022-12-03T10:32:38.900Z,102376.41
2022-12-03T10:35:18.961Z,102379.91
2022-12-03T10:37:59.657Z,102371.28
2022-12-03T10:40:39.091Z,102370.50
2022-12-03T10:43:18.015Z,102367.13
2022-12-03T10:46:04.635Z,102370.38
2022-12-03T10:48:31.839Z,102370.31
2022-12-03T10:51:05.050Z,102374.47
2022-12-03T10:53:35.633Z,102366.34
2022-12-03T10:56:06.730Z,102368.22
2022-12-03T10:58:39.262Z,102360.31
2022-12-03T11:01:19.222Z,102354.81
2022-12-03T11:03:47.377Z,102353.19
2022-12-03T11:06:17.144Z,102356.56
2022-12-03T11:08:53.037Z,102357.16
2022-12-03T11:11:28.278Z,102355.56
2022-12-03T11:13:58.360Z,102354.81
2022-12-03T11:17:00.394Z,102352.31
2022-12-03T11:19:47.650Z,102342.91
2022-12-03T11:22:14.405Z,102350.84
2022-12-03T11:24:41.342Z,102346.56
2022-12-03T11:27:11.110Z,102340.53
2022-12-03T11:29:56.479Z,102343.19
2022-12-03T11:32:38.483Z,102351.91
2022-12-03T11:36:09.174Z,102347.75
2022-12-03T11:38:41.442Z,102345.28
2022-12-03T11:41:29.441Z,102336.94
2022-12-03T11:44:04.464Z,102343.88
2022-12-03T11:46:37.336Z,102339.63
2022-12-03T11:49:25.116Z,102332.69
2022-12-03T11:51:52.405Z,102335.06
2022-12-03T11:54:23.737Z,102332.50
2022-12-03T11:56:52.065Z,102326.34
2022-12-03T11:59:19.613Z,102323.00
2022-12-03T12:01:47.242Z,102313.13
2022-12-03T12:04:35.283Z,102321.13
2022-12-03T12:07:02.621Z,102311.72
2022-12-03T12:09:55.824Z,102309.84
2022-12-03T12:12:38.289Z,102313.59
2022-12-03T12:15:39.059Z,102298.28
2022-12-03T12:18:43.995Z,102296.66
2022-12-03T12:21:49.984Z,102300.84
2022-12-03T12:24:47.805Z,102296.88
2022-12-03T12:27:32.073Z,102293.25
2022-12-03T12:30:12.617Z,102283.03
2022-12-03T12:32:47.815Z,102293.44
2022-12-03T12:35:29.305Z,102286.78
2022-12-03T12:38:10.809Z,102288.56
2022-12-03T12:40:41.616Z,102281.03
2022-12-03T12:43:27.664Z,102287.69
2022-12-03T12:45:59.482Z,102279.75
2022-12-03T12:48:34.594Z,102265.38
2022-12-03T12:51:20.783Z,102276.31
2022-12-03T12:53:49.027Z,102280.56
2022-12-03T12:56:32.546Z,102273.56
2022-12-03T12:59:15.539Z,102266.25
2022-12-03T13:01:44.736Z,102268.22
2022-12-03T13:04:12.959Z,102276.03
2022-12-03T13:06:40.810Z,102265.72
2022-12-03T13:09:38.626Z,102276.53
2022-12-03T13:12:18.691Z,102268.06
2022-12-03T13:14:45.630Z,102271.56
2022-12-03T13:17:24.502Z,102266.94
2022-12-03T13:20:02.042Z,102271.56
2022-12-03T13:22:33.801Z,102279.50
2022-12-03T13:25:58.207Z,102273.44
2022-12-03T13:28:20.148Z,102271.97
2022-12-03T13:30:47.014Z,102276.31
2022-12-03T13:33:26.100Z,102266.91
2022-12-03T13:35:55.516Z,102270.38
2022-12-03T13:38:23.595Z,102279.88
2022-12-03T13:41:00.250Z,102271.78
2022-12-03T13:43:32.243Z,102268.13
2022-12-03T13:46:00.349Z,102278.22
2022-12-03T13:48:35.430Z,102275.56
2022-12-03T13:51:24.787Z,102273.69
2022-12-03T13:53:51.895Z,102275.88
2022-12-03T13:56:30.853Z,102267.47
2022-12-03T13:59:00.372Z,102266.78
2022-12-03T14:01:28.073Z,102281.41
2022-12-03T14:03:55.061Z,102268.53
2022-12-03T14:06:21.989Z,102269.63
2022-12-03T14:08:49.769Z,102273.78
2022-12-03T14:11:35.157Z,102270.22
2022-12-03T14:14:02.129Z,102270.94
2022-12-03T14:16:29.115Z,102255.91
2022-12-03T14:18:56.080Z,102262.22
2022-12-03T14:21:22.954Z,102245.63
2022-12-03T14:23:49.835Z,102258.75
2022-12-03T14:26:16.736Z,102255.31
2022-12-03T14:28:43.629Z,102249.38
2022-12-03T14:31:10.496Z,102251.06
2022-12-03T14:33:37.365Z,102249.47
2022-12-03T14:36:04.408Z,102251.16
2022-12-03T14:38:31.810Z,102260.47
2022-12-03T14:40:58.677Z,102257.69
2022-12-03T14:43:25.565Z,102253.34
2022-12-03T14:45:52.474Z,102257.50
2022-12-03T14:48:21.045Z,102242.06
2022-12-03T14:50:47.905Z,102250.47
2022-12-03T14:53:14.788Z,102234.91
2022-12-03T14:55:41.641Z,102258.69
2022-12-03T14:58:08.523Z,102260.09
2022-12-03T15:00:35.420Z,102259.41
2022-12-03T15:03:02.374Z,102250.81
2022-12-03T15:05:29.395Z,102250.63
2022-12-03T15:07:56.492Z,102242.91
2022-12-03T15:10:23.417Z,102256.06
2022-12-03T15:12:50.338Z,102250.00
2022-12-03T15:15:17.236Z,102246.53
2022-12-03T15:17:45.700Z,102247.25
2022-12-03T15:20:13.166Z,102230.47
2022-12-03T15:22:40.070Z,102244.38
2022-12-03T15:25:07.861Z,102245.06
2022-12-03T15:27:34.718Z,102241.31
2022-12-03T15:30:01.717Z,102256.94
2022-12-03T15:32:28.623Z,102252.72
2022-12-03T15:34:55.575Z,102243.19
2022-12-03T15:37:22.434Z,102254.28
2022-12-03T15:39:49.383Z,102249.94
2022-12-03T15:42:16.321Z,102246.09
2022-12-03T15:44:43.217Z,102254.09
2022-12-03T15:47:10.092Z,102259.25
2022-12-03T15:49:36.990Z,102258.34
2022-12-03T15:52:04.543Z,102253.81
2022-12-03T15:54:31.437Z,102254.50
2022-12-03T15:56:58.298Z,102269.03
2022-12-03T15:59:25.411Z,102257.25
2022-12-03T16:01:52.317Z,102263.22
2022-12-03T16:04:19.227Z,102253.31
2022-12-03T16:06:46.081Z,102255.09
2022-12-03T16:09:12.957Z,102257.78
2022-12-03T16:11:39.815Z,102252.53
2022-12-03T16:14:06.687Z,102251.94
2022-12-03T16:16:33.656Z,102253.50
2022-12-03T16:19:00.647Z,102252.13
2022-12-03T16:21:27.578Z,102251.06
2022-12-03T16:23:55.449Z,102255.75
2022-12-03T16:26:22.615Z,102247.97
2022-12-03T16:28:49.522Z,102248.84
2022-12-03T16:31:16.495Z,102247.16
2022-12-03T16:33:43.452Z,102252.31
2022-12-03T16:36:10.442Z,102247.88
2022-12-03T16:38:37.325Z,102242.72
2022-12-03T16:41:04.218Z,102241.94
2022-12-03T16:43:33.953Z,102239.16
2022-12-03T16:46:20.887Z,102245.28
2022-12-03T16:48:48.587Z,102246.28
2022-12-03T16:51:16.561Z,102242.53
2022-12-03T16:53:43.463Z,102248.84
2022-12-03T16:56:10.328Z,102249.56
2022-12-03T16:58:37.336Z,102251.53
2022-12-03T17:01:04.565Z,102252.31
2022-12-03T17:03:34.104Z,102250.53
2022-12-03T17:06:01.819Z,102246.19
2022-12-03T17:08:28.781Z,102243.53
2022-12-03T17:10:55.916Z,102242.53
2022-12-03T17:13:23.174Z,102246.50
2022-12-03T17:15:50.899Z,102247.31
2022-12-03T17:18:17.840Z,102253.41
2022-12-03T17:20:44.715Z,102253.69
2022-12-03T17:23:12.711Z,102258.94
2022-12-03T17:25:39.655Z,102252.00
2022-12-03T17:28:06.588Z,102261.59
2022-12-03T17:30:33.452Z,102264.38
2022-12-03T17:33:01.320Z,102253.88
2022-12-03T17:35:28.564Z,102250.75
2022-12-03T17:37:55.658Z,102252.72
2022-12-03T17:40:23.436Z,102254.50
2022-12-03T17:42:50.329Z,102254.69
2022-12-03T17:45:17.202Z,102254.00
2022-12-03T17:47:44.124Z,102261.69
2022-12-03T17:50:11.281Z,102259.25
2022-12-03T17:52:38.193Z,102252.50
2022-12-03T17:55:21.139Z,102258.75
2022-12-03T17:57:50.753Z,102245.88
2022-12-03T18:00:17.926Z,102254.66
2022-12-03T18:02:44.814Z,102256.47
2022-12-03T18:05:11.750Z,102258.81
2022-12-03T18:07:38.725Z,102264.47
2022-12-03T18:10:06.813Z,102267.53
2022-12-03T18:12:34.125Z,102262.91
2022-12-03T18:15:01.023Z,102265.84
2022-12-03T18:17:27.906Z,102271.97
2022-12-03T18:19:55.047Z,102262.78
2022-12-03T18:22:22.103Z,102265.34
2022-12-03T18:24:51.874Z,102252.94
2022-12-03T18:27:20.865Z,102254.88
2022-12-03T18:29:47.986Z,102261.91
2022-12-03T18:32:28.423Z,102262.59
2022-12-03T18:34:57.408Z,102255.75
2022-12-03T18:37:28.207Z,102250.44
2022-12-03T18:39:56.403Z,102249.38
2022-12-03T18:42:24.035Z,102254.50
2022-12-03T18:44:54.347Z,102251.94
2022-12-03T18:47:25.174Z,102253.63
2022-12-03T18:49:53.124Z,102255.28
2022-12-03T18:52:22.972Z,102252.94
2022-12-03T18:54:49.876Z,102253.88
2022-12-03T18:57:17.550Z,102261.69
2022-12-03T18:59:44.443Z,102246.19
2022-12-03T19:05:08.592Z,102260.31
2022-12-03T19:07:35.655Z,102271.59
2022-12-03T19:10:03.102Z,102257.56
2022-12-03T19:12:31.077Z,102266.34
2022-12-03T19:14:57.969Z,102269.09
2022-12-03T19:17:26.913Z,102272.34
2022-12-03T19:19:54.070Z,102274.94
2022-12-03T19:22:21.375Z,102271.47
2022-12-03T19:24:48.265Z,102268.84
2022-12-03T19:27:15.176Z,102267.91
2022-12-03T19:29:42.075Z,102269.72
2022-12-03T19:32:09.115Z,102270.47
2022-12-03T19:34:36.120Z,102278.50
2022-12-03T19:37:02.998Z,102274.19
2022-12-03T19:39:29.898Z,102276.63
2022-12-03T19:41:56.776Z,102273.19
2022-12-03T19:44:23.676Z,102276.75
2022-12-03T19:46:50.933Z,102282.97
2022-12-03T19:49:20.879Z,102267.66
2022-12-03T19:51:48.231Z,102269.72
2022-12-03T19:54:15.755Z,102273.06
2022-12-03T19:56:43.002Z,102273.38
2022-12-03T19:59:12.848Z,102277.44
2022-12-03T20:01:40.788Z,102275.75
2022-12-03T20:04:08.824Z,102278.31
2022-12-03T20:06:38.963Z,102276.63
2022-12-03T20:09:13.034Z,102278.22
2022-12-03T20:11:42.003Z,102273.97
2022-12-03T20:14:12.745Z,102278.31
2022-12-03T20:16:39.806Z,102283.34
2022-12-03T20:19:08.473Z,102271.50
2022-12-03T20:21:37.257Z,102284.25
2022-12-03T20:24:05.578Z,102282.06
2022-12-03T20:26:32.516Z,102288.78
2022-12-03T20:28:59.657Z,102278.63
2022-12-03T20:31:30.460Z,102281.28
2022-12-03T20:34:01.293Z,102275.44
2022-12-03T20:36:29.940Z,102271.28
2022-12-03T20:39:02.196Z,102274.06
2022-12-03T20:41:29.709Z,102277.13
2022-12-03T20:43:56.825Z,102268.22
2022-12-03T20:46:27.529Z,102259.34
2022-12-03T20:48:55.181Z,102261.63
2022-12-03T20:51:25.628Z,102257.97
2022-12-03T20:53:52.534Z,102261.03
2022-12-03T20:56:31.224Z,102257.38
2022-12-03T20:59:07.337Z,102261.63
2022-12-03T21:01:36.011Z,102265.78
2022-12-03T21:04:04.706Z,102257.88
2022-12-03T21:06:34.007Z,102252.91
2022-12-03T21:09:01.048Z,102249.66
2022-12-03T21:11:31.081Z,102247.19
2022-12-03T21:13:59.518Z,102253.22
2022-12-03T21:16:59.407Z,102253.09
2022-12-03T21:19:20.164Z,102250.84
2022-12-03T21:21:47.053Z,102250.84
2022-12-03T21:24:14.063Z,102246.09
2022-12-03T21:26:41.331Z,102246.09
2022-12-03T21:29:08.683Z,102245.09
2022-12-03T21:31:38.266Z,102245.81
2022-12-03T21:34:05.274Z,102228.22
2022-12-03T21:36:32.364Z,102244.72
2022-12-03T21:38:59.253Z,102244.81
2022-12-03T21:41:26.490Z,102238.31
2022-12-03T21:43:53.391Z,102253.41
2022-12-03T21:47:09.509Z,102235.22
2022-12-03T21:49:07.605Z,102248.75
2022-12-03T21:51:34.566Z,102248.16
2022-12-03T21:54:01.467Z,102256.56
2022-12-03T21:56:30.777Z,102254.28
2022-12-03T21:58:57.717Z,102258.56
2022-12-03T22:01:25.199Z,102247.88
2022-12-03T22:03:52.370Z,102253.88
2022-12-03T22:06:19.870Z,102260.03
2022-12-03T22:08:47.354Z,102265.44
2022-12-03T22:11:21.447Z,102263.06
2022-12-03T22:13:49.048Z,102254.78
2022-12-03T22:16:19.100Z,102263.25
2022-12-03T22:18:46.993Z,102258.75
2022-12-03T22:21:18.174Z,102254.09
2022-12-03T22:23:45.538Z,102246.19
2022-12-03T22:26:15.479Z,102257.75
2022-12-03T22:28:49.903Z,102252.00
2022-12-03T22:31:18.596Z,102249.75
2022-12-03T22:33:48.279Z,102242.81
2022-12-03T22:36:21.021Z,102241.72
2022-12-03T22:38:50.276Z,102248.97
2022-12-03T22:41:18.146Z,102234.25
2022-12-03T22:43:46.317Z,102239.97
2022-12-03T22:46:14.043Z,102242.44
2022-12-03T22:48:43.719Z,102235.41
2022-12-03T22:51:19.584Z,102235.72
2022-12-03T22:53:47.096Z,102233.31
2022-12-03T22:56:14.223Z,102235.13
2022-12-03T22:58:41.247Z,102238.00
2022-12-03T23:01:08.628Z,102240.81
2022-12-03T23:03:36.606Z,102236.66
2022-12-03T23:06:10.921Z,102227.91
2022-12-03T23:08:38.220Z,102232.84
2022-12-03T23:11:05.100Z,102235.91
2022-12-03T23:13:32.001Z,102237.66
2022-12-03T23:15:58.924Z,102239.25
2022-12-03T23:18:25.830Z,102240.81
2022-12-03T23:20:55.937Z,102238.16
2022-12-03T23:23:25.863Z,102229.19
2022-12-03T23:26:05.180Z,102223.84
2022-12-03T23:28:35.443Z,102224.91
2022-12-03T23:31:03.616Z,102226.53
2022-12-03T23:33:35.237Z,102222.16
2022-12-03T23:36:06.806Z,102220.41
2022-12-03T23:38:33.749Z,102226.41
2022-12-03T23:41:09.534Z,102227.41
2022-12-03T23:43:36.447Z,102214.56
2022-12-03T23:46:10.628Z,102221.88
2022-12-03T23:48:38.072Z,102217.69
2022-12-03T23:51:11.066Z,102222.13
2022-12-03T23:53:38.644Z,102217.78
2022-12-03T23:56:11.757Z,102224.50
2022-12-03T23:58:38.723Z,102221.75
